createdAt,value
2022-10-18T00:01:07.604Z,15.60
2022-10-18T00:03:36.084Z,15.60
2022-10-18T00:06:04.835Z,15.50
2022-10-18T00:08:33.053Z,15.60
2022-10-18T00:11:00.733Z,15.50
2022-10-18T00:13:28.642Z,15.50
2022-10-18T00:16:00.134Z,15.50
2022-10-18T00:18:28.493Z,15.50
2022-10-18T00:20:58.924Z,15.60
2022-10-18T00:23:27.461Z,15.60
2022-10-18T00:26:01.156Z,15.70
2022-10-18T00:28:29.198Z,15.60
2022-10-18T00:30:59.527Z,15.70
2022-10-18T00:33:28.386Z,15.80
2022-10-18T00:35:56.174Z,15.80
2022-10-18T00:38:23.931Z,15.70
2022-10-18T00:40:51.628Z,15.80
2022-10-18T00:43:19.646Z,15.70
2022-10-18T00:45:47.525Z,15.80
2022-10-18T00:48:19.657Z,15.90
2022-10-18T00:50:49.914Z,16.00
2022-10-18T00:53:21.169Z,16.00
2022-10-18T00:55:49.610Z,16.10
2022-10-18T00:58:19.739Z,16.10
2022-10-18T01:00:47.625Z,15.90
2022-10-18T01:03:16.714Z,16.00
2022-10-18T01:05:47.217Z,16.00
2022-10-18T01:08:29.985Z,16.10
2022-10-18T01:11:10.521Z,16.10
2022-10-18T01:13:50.517Z,16.20
2022-10-18T01:16:25.504Z,16.30
2022-10-18T01:18:59.353Z,16.20
2022-10-18T01:21:36.953Z,16.20
2022-10-18T01:24:35.328Z,16.20
2022-10-18T01:27:17.448Z,16.20
2022-10-18T01:30:04.966Z,16.20
2022-10-18T01:32:38.373Z,16.30
2022-10-18T01:35:11.857Z,16.40
2022-10-18T01:37:41.662Z,16.50
2022-10-18T01:40:11.262Z,16.50
2022-10-18T01:42:38.936Z,16.30
2022-10-18T01:45:08.789Z,16.30
2022-10-18T01:47:38.383Z,16.30
2022-10-18T01:50:07.443Z,16.40
2022-10-18T01:52:35.603Z,16.40
2022-10-18T01:55:04.929Z,16.40
2022-10-18T01:57:38.076Z,16.40
2022-10-18T02:00:11.314Z,16.50
2022-10-18T02:02:59.989Z,16.50
2022-10-18T02:05:34.036Z,16.50
2022-10-18T02:08:19.241Z,16.50
2022-10-18T02:10:53.751Z,16.50
2022-10-18T02:13:24.293Z,16.40
2022-10-18T02:15:57.462Z,16.40
2022-10-18T02:18:31.424Z,16.40
2022-10-18T02:20:59.743Z,16.40
2022-10-18T02:23:28.089Z,16.40
2022-10-18T02:25:56.313Z,16.40
2022-10-18T02:31:04.250Z,16.40
2022-10-18T02:33:40.814Z,16.30
2022-10-18T02:36:14.087Z,16.40
2022-10-18T02:38:43.116Z,16.30
2022-10-18T02:41:10.898Z,16.40
2022-10-18T02:43:38.652Z,16.40
2022-10-18T02:46:07.794Z,16.50
2022-10-18T02:48:36.783Z,16.50
2022-10-18T02:51:04.580Z,16.50
2022-10-18T02:53:32.311Z,16.40
2022-10-18T02:56:03.949Z,16.40
2022-10-18T02:58:31.689Z,16.30
2022-10-18T03:00:59.360Z,16.20
2022-10-18T03:03:27.078Z,16.20
2022-10-18T03:05:56.073Z,16.10
2022-10-18T03:08:26.242Z,16.10
2022-10-18T03:10:55.532Z,16.10
2022-10-18T03:13:23.442Z,16.10
2022-10-18T03:15:51.189Z,16.00
2022-10-18T03:18:20.537Z,16.10
2022-10-18T03:20:48.209Z,16.00
2022-10-18T03:23:17.237Z,16.00
2022-10-18T03:25:46.408Z,15.90
2022-10-18T03:28:14.338Z,15.90
2022-10-18T03:30:42.017Z,15.80
2022-10-18T03:33:09.733Z,15.80
2022-10-18T03:35:37.731Z,15.70
2022-10-18T03:38:06.778Z,15.70
2022-10-18T03:40:35.990Z,15.70
2022-10-18T03:43:03.877Z,15.70
2022-10-18T03:45:31.786Z,15.60
2022-10-18T03:47:59.634Z,15.60
2022-10-18T03:50:27.406Z,15.50
2022-10-18T03:52:55.391Z,15.50
2022-10-18T03:55:23.383Z,15.50
2022-10-18T03:57:52.485Z,15.60
2022-10-18T04:00:23.100Z,15.70
2022-10-18T04:02:54.907Z,15.80
2022-10-18T04:05:26.761Z,15.90
2022-10-18T04:07:55.351Z,15.90
2022-10-18T04:10:23.396Z,15.90
2022-10-18T04:12:52.718Z,16.00
2022-10-18T04:15:20.819Z,16.00
2022-10-18T04:17:50.957Z,16.10
2022-10-18T04:20:18.896Z,16.00
2022-10-18T04:22:49.010Z,15.90
2022-10-18T04:25:17.134Z,15.90
2022-10-18T04:27:45.254Z,16.00
2022-10-18T04:30:14.403Z,16.00
2022-10-18T04:32:42.167Z,16.00
2022-10-18T04:35:11.649Z,16.10
2022-10-18T04:37:39.426Z,16.00
2022-10-18T04:40:08.201Z,16.10
2022-10-18T04:42:35.925Z,16.10
2022-10-18T04:45:08.233Z,16.10
2022-10-18T04:47:37.234Z,16.10
2022-10-18T04:50:05.559Z,16.20
2022-10-18T04:52:33.270Z,16.20
2022-10-18T04:55:00.959Z,16.10
2022-10-18T04:57:28.858Z,16.20
2022-10-18T04:59:56.668Z,16.20
2022-10-18T05:02:24.409Z,16.20
2022-10-18T05:04:54.096Z,16.30
2022-10-18T05:07:21.829Z,16.30
2022-10-18T05:09:49.544Z,16.30
2022-10-18T05:12:18.013Z,16.40
2022-10-18T05:14:45.746Z,16.40
2022-10-18T05:17:13.494Z,16.40
2022-10-18T05:19:41.195Z,16.30
2022-10-18T05:22:10.242Z,16.40
2022-10-18T05:24:37.970Z,16.40
2022-10-18T05:27:05.858Z,16.40
2022-10-18T05:29:33.559Z,16.50
2022-10-18T05:32:03.048Z,16.50
2022-10-18T05:34:32.303Z,16.60
2022-10-18T05:37:00.670Z,16.70
2022-10-18T05:39:29.695Z,16.70
2022-10-18T05:41:58.034Z,16.80
2022-10-18T05:44:25.805Z,16.90
2022-10-18T05:46:53.555Z,17.00
2022-10-18T05:49:22.206Z,17.00
2022-10-18T05:51:50.291Z,16.90
2022-10-18T05:54:18.473Z,16.90
2022-10-18T05:56:48.007Z,16.90
2022-10-18T05:59:15.732Z,16.90
2022-10-18T06:01:44.589Z,16.90
2022-10-18T06:04:12.690Z,16.90
2022-10-18T06:06:41.781Z,16.90
2022-10-18T06:09:10.908Z,16.90
2022-10-18T06:11:38.683Z,17.00
2022-10-18T06:14:09.289Z,17.00
2022-10-18T06:19:10.083Z,17.00
2022-10-18T06:21:37.835Z,17.00
2022-10-18T06:24:06.003Z,17.00
2022-10-18T06:26:33.695Z,16.80
2022-10-18T06:29:01.537Z,16.90
2022-10-18T06:31:30.650Z,17.00
2022-10-18T06:34:01.973Z,17.10
2022-10-18T06:36:33.953Z,17.10
2022-10-18T06:39:02.476Z,17.10
2022-10-18T06:41:30.354Z,17.10
2022-10-18T06:44:13.207Z,17.20
2022-10-18T06:46:46.455Z,17.20
2022-10-18T06:49:19.044Z,17.30
2022-10-18T06:51:50.878Z,17.30
2022-10-18T06:54:19.222Z,17.40
2022-10-18T06:56:47.208Z,17.40
2022-10-18T06:59:18.084Z,17.40
2022-10-18T07:01:54.254Z,17.30
2022-10-18T07:04:22.019Z,17.40
2022-10-18T07:06:49.803Z,17.40
2022-10-18T07:09:17.513Z,17.40
2022-10-18T07:11:45.218Z,17.40
2022-10-18T07:14:16.312Z,17.40
2022-10-18T07:16:45.708Z,17.40
2022-10-18T07:19:14.896Z,17.50
2022-10-18T07:21:42.722Z,17.50
2022-10-18T07:24:10.434Z,17.70
2022-10-18T07:26:42.353Z,17.80
2022-10-18T07:29:13.047Z,17.90
2022-10-18T07:31:40.988Z,18.00
2022-10-18T07:34:11.616Z,18.10
2022-10-18T07:36:44.409Z,18.20
2022-10-18T07:39:12.286Z,18.20
2022-10-18T07:41:40.129Z,18.20
2022-10-18T07:44:08.986Z,18.20
2022-10-18T07:46:36.955Z,18.10
2022-10-18T07:49:04.950Z,18.10
2022-10-18T07:51:35.886Z,18.00
2022-10-18T07:54:07.364Z,17.90
2022-10-18T07:56:35.149Z,17.90
2022-10-18T07:59:03.002Z,17.80
2022-10-18T08:01:30.853Z,17.70
2022-10-18T08:04:06.086Z,17.70
2022-10-18T08:06:36.834Z,17.70
2022-10-18T08:09:04.842Z,17.80
2022-10-18T08:11:34.198Z,17.80
2022-10-18T08:14:01.922Z,17.90
2022-10-18T08:19:00.050Z,18.40
2022-10-18T08:21:27.873Z,19.00
2022-10-18T08:23:55.557Z,19.50
2022-10-18T08:26:24.172Z,19.60
2022-10-18T08:28:58.385Z,19.50
2022-10-18T08:31:32.038Z,19.30
2022-10-18T08:33:59.929Z,19.10
2022-10-18T08:36:27.703Z,19.00
2022-10-18T08:38:55.416Z,18.80
2022-10-18T08:41:34.869Z,18.60
2022-10-18T08:44:11.827Z,18.50
2022-10-18T08:46:45.125Z,18.40
2022-10-18T08:49:21.681Z,18.40
2022-10-18T08:51:51.353Z,18.30
2022-10-18T08:54:26.566Z,18.40
2022-10-18T08:57:00.762Z,18.70
2022-10-18T08:59:35.088Z,18.80
2022-10-18T09:02:13.766Z,19.80
2022-10-18T09:04:49.310Z,20.40
2022-10-18T09:07:34.028Z,20.60
2022-10-18T09:10:09.725Z,20.70
2022-10-18T09:12:56.550Z,20.90
2022-10-18T09:15:34.425Z,21.40
2022-10-18T09:18:16.928Z,21.70
2022-10-18T09:20:52.314Z,21.60
2022-10-18T09:23:26.824Z,21.00
2022-10-18T09:26:01.506Z,20.90
2022-10-18T09:28:37.361Z,21.00
2022-10-18T09:31:12.361Z,21.10
2022-10-18T09:33:48.927Z,21.20
2022-10-18T09:36:22.897Z,21.30
2022-10-18T09:38:57.232Z,21.50
2022-10-18T09:41:31.274Z,21.70
2022-10-18T09:44:03.290Z,22.40
2022-10-18T09:46:37.201Z,23.30
2022-10-18T09:49:11.716Z,24.60
2022-10-18T09:51:43.436Z,25.40
2022-10-18T09:54:21.722Z,25.70
2022-10-18T09:56:52.250Z,25.60
2022-10-18T09:59:33.191Z,25.50
2022-10-18T10:02:02.302Z,25.10
2022-10-18T10:04:30.069Z,24.50
2022-10-18T10:07:00.779Z,24.10
2022-10-18T10:09:30.193Z,23.70
2022-10-18T10:11:59.316Z,23.50
2022-10-18T10:14:30.085Z,23.40
2022-10-18T10:17:02.088Z,23.20
2022-10-18T10:19:33.926Z,23.10
2022-10-18T10:22:06.030Z,23.10
2022-10-18T10:24:47.542Z,23.10
2022-10-18T10:27:20.369Z,23.30
2022-10-18T10:29:53.835Z,23.50
2022-10-18T10:32:23.434Z,23.60
2022-10-18T10:34:53.101Z,23.70
2022-10-18T10:37:32.511Z,23.80
2022-10-18T10:40:23.983Z,23.70
2022-10-18T10:43:12.808Z,23.70
2022-10-18T10:46:03.578Z,23.70
2022-10-18T10:48:34.420Z,23.90
2022-10-18T10:51:07.169Z,24.10
2022-10-18T10:53:42.435Z,23.90
2022-10-18T10:56:23.408Z,24.00
2022-10-18T10:58:52.867Z,23.80
2022-10-18T11:01:27.122Z,23.50
2022-10-18T11:03:57.575Z,23.40
2022-10-18T11:06:38.513Z,23.60
2022-10-18T11:09:16.070Z,23.60
2022-10-18T11:11:53.869Z,23.50
2022-10-18T11:14:27.231Z,23.50
2022-10-18T11:17:05.631Z,23.40
2022-10-18T11:19:43.264Z,23.40
2022-10-18T11:22:16.965Z,23.40
2022-10-18T11:24:44.857Z,23.50
2022-10-18T11:27:19.228Z,23.40
2022-10-18T11:30:02.620Z,23.40
2022-10-18T11:32:42.240Z,23.30
2022-10-18T11:35:29.885Z,23.30
2022-10-18T11:38:09.874Z,23.30
2022-10-18T11:40:51.044Z,23.30
2022-10-18T11:43:30.283Z,23.40
2022-10-18T11:46:11.755Z,23.50
2022-10-18T11:48:51.763Z,23.50
2022-10-18T11:51:38.712Z,23.60
2022-10-18T11:54:38.357Z,23.80
2022-10-18T11:57:20.678Z,23.90
2022-10-18T12:00:00.829Z,24.00
2022-10-18T12:02:51.998Z,23.90
2022-10-18T12:05:24.470Z,23.70
2022-10-18T12:08:00.689Z,23.60
2022-10-18T12:10:45.951Z,23.50
2022-10-18T12:13:24.287Z,23.50
2022-10-18T12:15:52.932Z,23.50
2022-10-18T12:18:28.917Z,23.60
2022-10-18T12:21:06.402Z,23.80
2022-10-18T12:23:43.111Z,23.90
2022-10-18T12:26:13.575Z,23.90
2022-10-18T12:28:52.782Z,23.90
2022-10-18T12:31:27.164Z,23.90
2022-10-18T12:34:02.478Z,23.70
2022-10-18T12:36:50.972Z,23.60
2022-10-18T12:39:37.626Z,23.60
2022-10-18T12:42:23.903Z,23.70
2022-10-18T12:45:02.064Z,23.50
2022-10-18T12:47:33.080Z,23.50
2022-10-18T12:50:04.578Z,23.40
2022-10-18T12:52:36.968Z,23.40
2022-10-18T12:55:27.932Z,23.50
2022-10-18T12:58:20.970Z,23.60
2022-10-18T13:01:01.092Z,23.80
2022-10-18T13:03:41.266Z,24.10
2022-10-18T13:06:09.181Z,24.40
2022-10-18T13:08:41.769Z,24.30
2022-10-18T13:11:28.314Z,24.50
2022-10-18T13:14:13.182Z,24.40
2022-10-18T13:16:46.996Z,23.90
2022-10-18T13:19:24.489Z,23.80
2022-10-18T13:22:01.249Z,23.80
2022-10-18T13:24:34.949Z,23.60
2022-10-18T13:27:36.645Z,23.50
2022-10-18T13:30:29.524Z,23.50
2022-10-18T13:33:09.081Z,23.50
2022-10-18T13:35:53.049Z,23.60
2022-10-18T13:38:43.496Z,23.40
2022-10-18T13:41:13.948Z,23.50
2022-10-18T13:43:58.056Z,23.50
2022-10-18T13:47:01.997Z,23.50
2022-10-18T13:49:40.672Z,23.60
2022-10-18T13:52:15.866Z,23.50
2022-10-18T13:54:57.533Z,23.50
2022-10-18T13:57:42.617Z,23.40
2022-10-18T14:00:25.894Z,23.30
2022-10-18T14:03:44.044Z,23.20
2022-10-18T14:06:11.219Z,23.00
2022-10-18T14:08:43.485Z,22.80
2022-10-18T14:11:22.300Z,22.90
2022-10-18T14:13:55.687Z,23.00
2022-10-18T14:16:32.906Z,23.00
2022-10-18T14:19:09.890Z,23.20
2022-10-18T14:21:44.064Z,23.20
2022-10-18T14:24:20.724Z,23.00
2022-10-18T14:26:48.707Z,23.10
2022-10-18T14:29:23.650Z,23.10
2022-10-18T14:31:57.232Z,23.20
2022-10-18T14:34:27.413Z,23.30
2022-10-18T14:36:59.175Z,23.40
2022-10-18T14:39:30.222Z,23.50
2022-10-18T14:42:03.253Z,23.20
2022-10-18T14:44:34.821Z,23.20
2022-10-18T14:47:04.844Z,23.20
2022-10-18T14:49:33.154Z,23.20
2022-10-18T14:52:02.711Z,23.20
2022-10-18T14:54:33.605Z,23.20
2022-10-18T14:57:02.101Z,23.10
2022-10-18T14:59:34.249Z,23.00
2022-10-18T15:02:10.619Z,22.80
2022-10-18T15:04:40.784Z,22.70
2022-10-18T15:07:18.232Z,22.60
2022-10-18T15:09:47.732Z,22.50
2022-10-18T15:12:19.601Z,22.40
2022-10-18T15:14:51.983Z,22.30
2022-10-18T15:17:22.935Z,22.20
2022-10-18T15:20:05.945Z,22.10
2022-10-18T15:22:36.754Z,22.00
2022-10-18T15:25:14.474Z,21.90
2022-10-18T15:27:45.496Z,21.90
2022-10-18T15:30:19.432Z,21.80
2022-10-18T15:32:50.907Z,21.80
2022-10-18T15:35:25.851Z,21.70
2022-10-18T15:37:57.078Z,21.70
2022-10-18T15:40:37.240Z,21.70
2022-10-18T15:43:06.990Z,21.80
2022-10-18T15:45:38.685Z,21.80
2022-10-18T15:48:23.195Z,21.80
2022-10-18T15:50:53.033Z,21.70
2022-10-18T15:53:32.534Z,21.60
2022-10-18T15:56:02.798Z,21.50
2022-10-18T15:58:38.954Z,21.30
2022-10-18T16:01:15.007Z,21.20
2022-10-18T16:03:43.466Z,21.20
2022-10-18T16:06:18.171Z,21.10
2022-10-18T16:08:51.817Z,21.00
2022-10-18T16:11:22.051Z,20.90
2022-10-18T16:13:50.287Z,20.80
2022-10-18T16:16:24.488Z,20.80
2022-10-18T16:18:54.285Z,20.80
2022-10-18T16:21:29.367Z,20.80
2022-10-18T16:23:59.420Z,20.80
2022-10-18T16:26:27.984Z,20.60
2022-10-18T16:28:57.236Z,20.50
2022-10-18T16:31:27.174Z,20.40
2022-10-18T16:33:55.901Z,20.40
2022-10-18T16:36:25.889Z,20.40
2022-10-18T16:38:54.848Z,20.30
2022-10-18T16:41:24.324Z,20.30
2022-10-18T16:43:52.730Z,20.30
2022-10-18T16:46:22.745Z,20.30
2022-10-18T16:48:52.127Z,20.30
2022-10-18T16:51:20.712Z,20.30
2022-10-18T16:53:48.674Z,20.30
2022-10-18T16:56:18.617Z,20.30
2022-10-18T16:58:47.868Z,20.30
2022-10-18T17:01:17.820Z,20.30
2022-10-18T17:03:51.929Z,20.30
2022-10-18T17:06:27.364Z,20.20
2022-10-18T17:09:00.258Z,20.20
2022-10-18T17:11:30.421Z,20.20
2022-10-18T17:14:02.087Z,20.20
2022-10-18T17:16:32.721Z,20.20
2022-10-18T17:19:02.807Z,20.10
2022-10-18T17:21:33.354Z,20.10
2022-10-18T17:24:03.090Z,20.10
2022-10-18T17:26:34.210Z,20.00
2022-10-18T17:29:07.979Z,20.00
2022-10-18T17:31:36.741Z,20.00
2022-10-18T17:34:06.074Z,19.90
2022-10-18T17:36:34.540Z,19.90
2022-10-18T17:39:06.864Z,20.00
2022-10-18T17:41:34.665Z,19.80
2022-10-18T17:44:05.675Z,19.80
2022-10-18T17:46:34.541Z,19.90
2022-10-18T17:49:02.976Z,19.80
2022-10-18T17:51:30.665Z,19.80
2022-10-18T17:54:00.738Z,19.80
2022-10-18T17:56:33.153Z,19.70
2022-10-18T17:59:01.044Z,19.60
2022-10-18T18:01:31.420Z,19.60
2022-10-18T18:04:02.028Z,19.60
2022-10-18T18:06:33.909Z,19.60
2022-10-18T18:09:04.889Z,19.50
2022-10-18T18:11:33.687Z,19.50
2022-10-18T18:14:01.600Z,19.50
2022-10-18T18:16:32.702Z,19.40
2022-10-18T18:19:00.467Z,19.40
2022-10-18T18:21:29.641Z,19.40
2022-10-18T18:23:57.404Z,19.30
2022-10-18T18:26:28.079Z,19.30
2022-10-18T18:28:59.173Z,19.30
2022-10-18T18:31:34.494Z,19.20
2022-10-18T18:34:11.157Z,19.10
2022-10-18T18:36:38.842Z,19.10
2022-10-18T18:39:10.047Z,19.20
2022-10-18T18:41:38.297Z,19.20
2022-10-18T18:48:34.155Z,19.20
2022-10-18T18:51:01.945Z,19.10
2022-10-18T18:53:29.994Z,19.10
2022-10-18T18:56:02.549Z,19.00
2022-10-18T18:58:32.831Z,18.90
2022-10-18T19:01:08.043Z,18.80
2022-10-18T19:03:42.418Z,18.80
2022-10-18T19:06:12.465Z,18.80
2022-10-18T19:08:40.929Z,18.70
2022-10-18T19:11:09.632Z,18.60
2022-10-18T19:13:37.707Z,18.60
2022-10-18T19:16:20.723Z,18.40
2022-10-18T19:18:56.947Z,18.30
2022-10-18T19:21:31.599Z,18.30
2022-10-18T19:24:04.190Z,18.20
2022-10-18T19:26:36.646Z,18.20
2022-10-18T19:29:08.762Z,18.10
2022-10-18T19:31:37.765Z,18.00
2022-10-18T19:34:09.168Z,18.00
2022-10-18T19:36:39.922Z,18.00
2022-10-18T19:39:09.174Z,18.00
2022-10-18T19:41:37.155Z,17.90
2022-10-18T19:44:05.025Z,17.90
2022-10-18T19:46:32.905Z,17.80
2022-10-18T19:49:00.867Z,17.80
2022-10-18T19:51:29.930Z,17.70
2022-10-18T19:53:58.619Z,17.60
2022-10-18T19:56:27.748Z,17.60
2022-10-18T19:58:56.638Z,17.50
2022-10-18T20:01:25.263Z,17.40
2022-10-18T20:03:53.311Z,17.40
2022-10-18T20:06:21.706Z,17.30
2022-10-18T20:08:51.498Z,17.30
2022-10-18T20:11:21.903Z,17.10
2022-10-18T20:13:50.310Z,17.10
2022-10-18T20:16:23.044Z,17.00
2022-10-18T20:18:57.760Z,17.00
2022-10-18T20:21:26.349Z,16.90
2022-10-18T20:23:55.766Z,16.80
2022-10-18T20:26:25.401Z,16.80
2022-10-18T20:28:56.603Z,16.80
2022-10-18T20:31:26.958Z,16.70
2022-10-18T20:34:00.502Z,16.70
2022-10-18T20:36:29.604Z,16.70
2022-10-18T20:38:59.091Z,16.60
2022-10-18T20:41:28.963Z,16.60
2022-10-18T20:43:58.537Z,16.50
2022-10-18T20:46:27.002Z,16.50
2022-10-18T20:48:55.514Z,16.50
2022-10-18T20:51:23.907Z,16.40
2022-10-18T20:53:52.219Z,16.40
2022-10-18T20:56:23.514Z,16.40
2022-10-18T20:58:52.627Z,16.30
2022-10-18T21:01:22.091Z,16.20
2022-10-18T21:03:52.527Z,16.10
2022-10-18T21:06:21.943Z,16.00
2022-10-18T21:08:54.362Z,15.90
2022-10-18T21:11:24.086Z,15.90
2022-10-18T21:13:53.147Z,15.90
2022-10-18T21:16:21.174Z,15.90
2022-10-18T21:18:49.742Z,15.90
2022-10-18T21:21:18.983Z,15.70
2022-10-18T21:23:47.537Z,15.60
2022-10-18T21:26:16.354Z,15.70
2022-10-18T21:28:45.750Z,15.60
2022-10-18T21:31:15.780Z,15.50
2022-10-18T21:33:44.766Z,15.50
2022-10-18T21:36:13.086Z,15.50
2022-10-18T21:38:41.323Z,15.50
2022-10-18T21:41:10.325Z,15.50
2022-10-18T21:43:40.391Z,15.50
2022-10-18T21:46:15.870Z,15.40
2022-10-18T21:48:45.159Z,15.30
2022-10-18T21:51:15.320Z,15.30
2022-10-18T21:53:47.650Z,15.20
2022-10-18T21:56:17.607Z,15.20
2022-10-18T21:58:46.086Z,15.20
2022-10-18T22:01:17.531Z,15.30
2022-10-18T22:03:46.607Z,15.20
2022-10-18T22:06:16.091Z,15.30
2022-10-18T22:08:45.282Z,14.80
2022-10-18T22:11:14.223Z,14.90
2022-10-18T22:13:43.111Z,14.90
2022-10-18T22:16:14.159Z,14.80
2022-10-18T22:18:43.658Z,14.70
2022-10-18T22:21:14.154Z,14.90
2022-10-18T22:23:43.955Z,14.90
2022-10-18T22:26:14.320Z,15.00
2022-10-18T22:28:44.286Z,15.00
2022-10-18T22:31:16.454Z,15.00
2022-10-18T22:33:45.601Z,15.00
2022-10-18T22:36:14.427Z,15.00
2022-10-18T22:38:42.134Z,15.00
2022-10-18T22:41:12.037Z,15.00
2022-10-18T22:43:39.846Z,15.00
2022-10-18T22:46:09.667Z,15.00
2022-10-18T22:48:37.658Z,14.90
2022-10-18T22:51:07.402Z,14.80
2022-10-18T22:53:36.024Z,14.80
2022-10-18T22:56:05.011Z,14.60
2022-10-18T22:58:33.080Z,14.70
2022-10-18T23:01:06.692Z,14.70
2022-10-18T23:03:34.813Z,14.70
2022-10-18T23:06:03.242Z,14.80
2022-10-18T23:08:34.199Z,14.80
2022-10-18T23:11:01.926Z,14.80
2022-10-18T23:13:29.615Z,14.70
2022-10-18T23:16:04.510Z,14.60
2022-10-18T23:18:33.475Z,14.60
2022-10-18T23:21:02.911Z,14.60
2022-10-18T23:23:34.705Z,14.60
2022-10-18T23:26:03.834Z,14.60
2022-10-18T23:28:33.626Z,14.60
2022-10-18T23:31:06.456Z,14.50
2022-10-18T23:33:34.167Z,14.60
2022-10-18T23:36:01.883Z,14.60
2022-10-18T23:38:30.334Z,14.60
2022-10-18T23:40:59.569Z,14.60
2022-10-18T23:43:27.495Z,14.60
2022-10-18T23:45:55.218Z,14.60
2022-10-18T23:48:22.948Z,14.50
2022-10-18T23:50:55.743Z,14.40
2022-10-18T23:53:24.192Z,14.50
2022-10-18T23:55:54.566Z,14.40
2022-10-18T23:58:24.137Z,14.30
